createdAt,value
2023-06-05T00:01:22.025Z,5.800000000000001
2023-06-05T00:04:17.558Z,5.4875
2023-06-05T00:07:29.233Z,5.4625
2023-06-05T00:11:16.837Z,6.9750000000000005
2023-06-05T00:14:17.415Z,5.425000000000001
2023-06-05T00:17:17.761Z,6.0874999999999995
2023-06-05T00:21:22.039Z,5.9
2023-06-05T00:24:16.902Z,5.3375
2023-06-05T00:27:16.690Z,5.8125
2023-06-05T00:31:16.228Z,6.3875
2023-06-05T00:34:16.921Z,5.525
2023-06-05T00:37:17.106Z,5.075000000000001
2023-06-05T00:41:16.611Z,5.9375
2023-06-05T00:44:19.050Z,5.275
2023-06-05T00:47:22.179Z,5.4875
2023-06-05T00:51:18.162Z,5.65
2023-06-05T00:54:16.866Z,5.487500000000001
2023-06-05T00:57:17.014Z,5.8375
2023-06-05T01:01:17.015Z,5.175
2023-06-05T01:04:16.471Z,5.5125
2023-06-05T01:07:17.428Z,5.3375
2023-06-05T01:11:22.223Z,5.8125
2023-06-05T01:14:21.694Z,4.975
2023-06-05T01:17:20.783Z,5.775
2023-06-05T01:21:16.037Z,5.975
2023-06-05T01:24:17.261Z,4.625
2023-06-05T01:27:32.250Z,6.6125
2023-06-05T01:31:21.735Z,6.9125
2023-06-05T01:34:19.534Z,6.15
2023-06-05T01:37:20.579Z,5.475
2023-06-05T01:41:17.620Z,5.949999999999999
2023-06-05T01:44:19.705Z,4.949999999999999
2023-06-05T01:47:16.577Z,5.737500000000001
2023-06-05T01:51:16.309Z,6.6125
2023-06-05T01:54:17.137Z,5.9125
2023-06-05T01:57:16.591Z,5.3875
2023-06-05T02:01:24.418Z,6.25
2023-06-05T02:04:27.982Z,6.9875
2023-06-05T02:07:22.799Z,7.137499999999999
2023-06-05T02:11:16.322Z,5.762499999999999
2023-06-05T02:14:17.144Z,6.200000000000001
2023-06-05T02:17:17.006Z,6.3625
2023-06-05T02:21:17.052Z,7.25
2023-06-05T02:24:17.394Z,6.95
2023-06-05T02:27:17.695Z,6.3375
2023-06-05T02:31:17.544Z,7.025
2023-06-05T02:34:17.869Z,5.9750000000000005
2023-06-05T02:37:15.883Z,6.3125
2023-06-05T02:41:16.864Z,7.9125
2023-06-05T02:44:16.342Z,7.5625
2023-06-05T02:47:16.473Z,5.875
2023-06-05T02:51:15.934Z,6.7625
2023-06-05T02:54:16.022Z,6.525
2023-06-05T02:57:16.791Z,5.6875
2023-06-05T03:01:16.073Z,6.8375
2023-06-05T03:04:22.017Z,7.5
2023-06-05T03:07:16.104Z,6.449999999999999
2023-06-05T03:11:15.756Z,6.824999999999999
2023-06-05T03:14:15.776Z,7.949999999999999
2023-06-05T03:17:15.943Z,8.875
2023-06-05T03:21:15.712Z,11.6
2023-06-05T03:24:16.571Z,9.962499999999999
2023-06-05T03:27:15.974Z,9.15
2023-06-05T03:31:16.536Z,11.4375
2023-06-05T03:34:17.598Z,8.1875
2023-06-05T03:37:17.427Z,8.1875
2023-06-05T03:41:16.381Z,7.9
2023-06-05T03:44:16.774Z,8.125
2023-06-05T03:47:17.040Z,8.95
2023-06-05T03:51:18.910Z,8.0625
2023-06-05T03:54:17.830Z,7.9
2023-06-05T03:57:16.906Z,7.675
2023-06-05T04:01:16.159Z,7.3374999999999995
2023-06-05T04:04:17.055Z,7.15
2023-06-05T04:07:17.022Z,8.3875
2023-06-05T04:11:16.494Z,8.162500000000001
2023-06-05T04:14:16.118Z,8.8
2023-06-05T04:17:16.103Z,8.1875
2023-06-05T04:21:16.448Z,8.7
2023-06-05T04:24:16.730Z,9.15
2023-06-05T04:27:18.245Z,7.824999999999999
2023-06-05T04:31:15.900Z,8.2375
2023-06-05T04:34:19.448Z,7.8374999999999995
2023-06-05T04:37:16.559Z,9.024999999999999
2023-06-05T04:41:16.164Z,8.725
2023-06-05T04:44:17.953Z,8.8625
2023-06-05T04:47:16.561Z,7.7875
2023-06-05T04:51:15.546Z,7.6
2023-06-05T04:54:15.928Z,7.112500000000001
2023-06-05T04:57:17.501Z,5.525
2023-06-05T05:01:18.051Z,6.2625
2023-06-05T05:04:16.517Z,6.5
2023-06-05T05:07:17.547Z,6.575
2023-06-05T05:11:16.637Z,7.375
2023-06-05T05:14:17.793Z,5.9
2023-06-05T05:17:20.977Z,6.0375000000000005
2023-06-05T05:21:18.253Z,6.637499999999999
2023-06-05T05:24:16.831Z,5.300000000000001
2023-06-05T05:27:16.832Z,4.85
2023-06-05T05:31:15.689Z,5.574999999999999
2023-06-05T05:34:16.180Z,6.0875
2023-06-05T05:37:16.289Z,5.55
2023-06-05T05:41:16.092Z,6.2
2023-06-05T05:44:16.395Z,5.875
2023-06-05T05:47:16.603Z,5.775
2023-06-05T05:51:16.311Z,5.95
2023-06-05T05:54:16.489Z,6.0875
2023-06-05T05:57:16.636Z,5.2375
2023-06-05T06:01:16.471Z,7.9125
2023-06-05T06:04:17.339Z,6.449999999999999
2023-06-05T06:07:16.669Z,6.75
2023-06-05T06:11:17.919Z,6.4
2023-06-05T06:14:16.312Z,5.7625
2023-06-05T06:17:16.653Z,5.175000000000001
2023-06-05T06:21:16.475Z,6.325
2023-06-05T06:24:17.264Z,5.112500000000001
2023-06-05T06:27:34.037Z,5.7625
2023-06-05T06:31:16.428Z,5.8999999999999995
2023-06-05T06:34:17.425Z,5.4
2023-06-05T06:37:16.901Z,6.475
2023-06-05T06:41:16.318Z,6.5875
2023-06-05T06:44:16.702Z,7.1
2023-06-05T06:47:18.368Z,5.85
2023-06-05T06:51:16.395Z,4.9125000000000005
2023-06-05T06:54:16.591Z,4.9
2023-06-05T06:57:16.725Z,5.65
2023-06-05T07:01:16.213Z,5.8375
2023-06-05T07:04:18.306Z,5.9625
2023-06-05T07:07:17.799Z,7.737500000000001
2023-06-05T07:11:16.657Z,7.612500000000001
2023-06-05T07:14:17.031Z,6.3375
2023-06-05T07:17:17.186Z,6.175000000000001
2023-06-05T07:21:16.300Z,5.1625
2023-06-05T07:24:19.526Z,5.0625
2023-06-05T07:27:17.545Z,4.8375
2023-06-05T07:31:15.841Z,4.575
2023-06-05T07:34:17.722Z,3.15
2023-06-05T07:37:16.629Z,3.4124999999999996
2023-06-05T07:41:16.574Z,4.4750000000000005
2023-06-05T07:44:19.253Z,4.2875
2023-06-05T07:47:17.140Z,3.9749999999999996
2023-06-05T07:51:19.145Z,5.6125
2023-06-05T07:54:17.130Z,4.8125
2023-06-05T07:57:16.844Z,3.925
2023-06-05T08:01:17.431Z,4.9
2023-06-05T08:04:17.375Z,4.637499999999999
2023-06-05T08:07:16.904Z,4.425000000000001
2023-06-05T08:11:16.743Z,5.2125
2023-06-05T08:14:16.900Z,3.7625
2023-06-05T08:17:16.853Z,4.7625
2023-06-05T08:21:16.947Z,4.5375
2023-06-05T08:24:17.000Z,3.9125
2023-06-05T08:27:18.061Z,4.1875
2023-06-05T08:31:16.766Z,4.6
2023-06-05T08:34:17.211Z,3.725
2023-06-05T08:37:17.768Z,4.4625
2023-06-05T08:41:17.922Z,5.1875
2023-06-05T08:44:16.670Z,4.6375
2023-06-05T08:47:16.842Z,3.75
2023-06-05T08:51:17.793Z,4.3625
2023-06-05T08:54:18.191Z,4.1375
2023-06-05T08:57:16.832Z,3.7500000000000004
2023-06-05T09:01:16.292Z,4.375
2023-06-05T09:04:16.669Z,4.8875
2023-06-05T09:07:17.110Z,3.525
2023-06-05T09:11:25.083Z,3.9875
2023-06-05T09:14:26.336Z,3.55
2023-06-05T09:17:16.361Z,4.8
2023-06-05T09:21:16.837Z,4.9625
2023-06-05T09:24:18.037Z,4.8125
2023-06-05T09:27:17.772Z,3.4625000000000004
2023-06-05T09:31:18.220Z,3.05
2023-06-05T09:34:25.889Z,3.2625
2023-06-05T09:37:17.234Z,3.3875
2023-06-05T09:41:16.711Z,4.324999999999999
2023-06-05T09:44:17.345Z,2.9
2023-06-05T09:47:21.843Z,3.875
2023-06-05T09:51:16.999Z,2.9250000000000003
2023-06-05T09:54:17.214Z,3.1875
2023-06-05T09:57:16.652Z,3.25
2023-06-05T10:01:17.655Z,3.075
2023-06-05T10:04:21.084Z,3.0625
2023-06-05T10:07:17.178Z,2.9
2023-06-05T10:11:17.302Z,3.2
2023-06-05T10:14:16.709Z,2.8375
2023-06-05T10:17:17.219Z,2.7375
2023-06-05T10:21:17.984Z,3.1375
2023-06-05T10:24:21.099Z,3.0875000000000004
2023-06-05T10:27:34.431Z,2.7625
2023-06-05T10:31:26.117Z,3.6625
2023-06-05T10:34:34.796Z,2.625
2023-06-05T10:37:37.268Z,3.05
2023-06-05T10:41:18.594Z,3.2
2023-06-05T10:44:17.424Z,2.75
2023-06-05T10:47:50.637Z,2.975
2023-06-05T10:51:36.055Z,3.8125
2023-06-05T10:54:54.835Z,3.1375
2023-06-05T10:57:16.442Z,2.75
2023-06-05T11:01:18.003Z,3.3125
2023-06-05T11:04:18.656Z,2.9749999999999996
2023-06-05T11:07:19.139Z,2.9875
2023-06-05T11:11:16.616Z,3.3625
2023-06-05T11:14:16.902Z,2.6875
2023-06-05T11:17:27.501Z,2.7
2023-06-05T11:21:16.403Z,3.3
2023-06-05T11:24:17.299Z,3.5125
2023-06-05T11:27:42.636Z,3.0625
2023-06-05T11:31:28.515Z,3.275
2023-06-05T11:34:17.531Z,2.675
2023-06-05T11:37:19.201Z,2.9625
2023-06-05T11:41:17.013Z,2.75
2023-06-05T11:44:32.521Z,2.5125
2023-06-05T11:47:25.204Z,2.8499999999999996
2023-06-05T11:51:16.322Z,3.3
2023-06-05T11:54:25.380Z,2.2750000000000004
2023-06-05T11:57:19.432Z,2.8000000000000003
2023-06-05T12:01:19.791Z,3
2023-06-05T12:04:17.718Z,3.0374999999999996
2023-06-05T12:07:30.586Z,3.25
2023-06-05T12:11:24.497Z,3.4375
2023-06-05T12:14:29.847Z,3.1375
2023-06-05T12:17:16.338Z,3.3625
2023-06-05T12:21:21.444Z,3.3125
2023-06-05T12:24:25.169Z,3
2023-06-05T12:27:17.085Z,3.2874999999999996
2023-06-05T12:31:48.358Z,3.375
2023-06-05T12:34:17.095Z,3.025
2023-06-05T12:37:24.825Z,3.2125
2023-06-05T12:41:16.824Z,3.25
2023-06-05T12:44:16.826Z,3.7249999999999996
2023-06-05T12:47:17.315Z,2.9875
2023-06-05T12:51:16.380Z,3.35
2023-06-05T12:54:19.710Z,2.7249999999999996
2023-06-05T12:57:17.090Z,2.575
2023-06-05T13:01:16.618Z,2.8375
2023-06-05T13:04:16.967Z,4.175
2023-06-05T13:07:18.374Z,2.975
2023-06-05T13:11:16.071Z,2.5125
2023-06-05T13:14:16.420Z,2.875
2023-06-05T13:17:16.353Z,2.5500000000000003
2023-06-05T13:21:16.652Z,2.9749999999999996
2023-06-05T13:24:16.341Z,2.7750000000000004
2023-06-05T13:27:18.088Z,2.875
2023-06-05T13:31:17.755Z,3.05
2023-06-05T13:34:18.536Z,3.1125000000000003
2023-06-05T13:37:17.372Z,2.35
2023-06-05T13:41:16.884Z,2.6
2023-06-05T13:44:16.822Z,2.5999999999999996
2023-06-05T13:47:16.800Z,2.0875
2023-06-05T13:51:17.071Z,2.2
2023-06-05T13:54:16.657Z,2.6125
2023-06-05T13:57:18.137Z,3.175
2023-06-05T14:01:17.171Z,2.7375
2023-06-05T14:04:16.958Z,2.3375000000000004
2023-06-05T14:07:16.810Z,3
2023-06-05T14:11:16.317Z,2.8
2023-06-05T14:14:16.675Z,2.8125
2023-06-05T14:17:16.595Z,2.35
2023-06-05T14:21:16.385Z,2.9625000000000004
2023-06-05T14:24:16.698Z,3.1875
2023-06-05T14:27:17.465Z,2.2750000000000004
2023-06-05T14:31:16.412Z,2.725
2023-06-05T14:34:16.890Z,2.7249999999999996
2023-06-05T14:37:16.649Z,2.5875000000000004
2023-06-05T14:41:16.815Z,2.1875
2023-06-05T14:44:23.281Z,2.8625
2023-06-05T14:47:17.289Z,3.6125000000000003
2023-06-05T14:51:17.053Z,2.8
2023-06-05T14:54:17.122Z,2.0250000000000004
2023-06-05T14:57:17.159Z,2.0874999999999995
2023-06-05T15:01:16.774Z,2.2750000000000004
2023-06-05T15:04:17.225Z,2.3625
2023-06-05T15:07:19.778Z,1.7875
2023-06-05T15:11:16.512Z,2.275
2023-06-05T15:14:17.490Z,2.825
2023-06-05T15:17:16.830Z,2.5374999999999996
2023-06-05T15:21:16.583Z,2.05
2023-06-05T15:24:17.210Z,2.3125
2023-06-05T15:27:16.776Z,2.925
2023-06-05T15:31:16.400Z,1.8375
2023-06-05T15:34:16.760Z,3.1999999999999997
2023-06-05T15:37:16.611Z,2.375
2023-06-05T15:41:22.264Z,3.8875
2023-06-05T15:44:22.032Z,3.3875
2023-06-05T15:47:22.108Z,3.2750000000000004
2023-06-05T15:51:16.761Z,3.2874999999999996
2023-06-05T15:54:37.924Z,3.3875
2023-06-05T15:57:16.979Z,3.3
2023-06-05T16:01:16.442Z,4.4
2023-06-05T16:04:16.823Z,3.2375
2023-06-05T16:07:17.409Z,4.175
2023-06-05T16:11:16.308Z,3.6875
2023-06-05T16:14:16.740Z,2.9375
2023-06-05T16:17:17.429Z,4.175000000000001
2023-06-05T16:21:16.679Z,3.9749999999999996
2023-06-05T16:24:16.787Z,4.25
2023-06-05T16:27:17.797Z,3.575
2023-06-05T16:31:16.398Z,3.85
2023-06-05T16:34:16.511Z,3.45
2023-06-05T16:37:16.333Z,4.1
2023-06-05T16:41:16.463Z,3.4124999999999996
2023-06-05T16:44:19.287Z,3.8625
2023-06-05T16:47:16.745Z,3.5125
2023-06-05T16:51:16.753Z,4.6625
2023-06-05T16:54:16.478Z,3.975
2023-06-05T16:57:16.380Z,3.5875
2023-06-05T17:01:19.703Z,4.175
2023-06-05T17:04:18.337Z,4.1125
2023-06-05T17:07:16.838Z,3.8375
2023-06-05T17:11:17.209Z,3.8375000000000004
2023-06-05T17:14:17.671Z,3.775
2023-06-05T17:17:17.108Z,4.0125
2023-06-05T17:21:17.086Z,4.1875
2023-06-05T17:24:17.106Z,4.0375
2023-06-05T17:27:17.289Z,3.3875
2023-06-05T17:31:16.614Z,4.7125
2023-06-05T17:34:17.308Z,3.7375
2023-06-05T17:37:18.836Z,3.8875
2023-06-05T17:41:17.943Z,4.3125
2023-06-05T17:44:19.071Z,4.225
2023-06-05T17:47:18.943Z,5.55
2023-06-05T17:51:17.377Z,4.2375
2023-06-05T17:54:19.604Z,4.7
2023-06-05T17:57:18.727Z,4.3875
2023-06-05T18:01:17.764Z,4.949999999999999
2023-06-05T18:04:17.438Z,4.025
2023-06-05T18:07:17.841Z,3.95
2023-06-05T18:11:17.527Z,3.9749999999999996
2023-06-05T18:14:17.001Z,4.2124999999999995
2023-06-05T18:17:16.421Z,3.7249999999999996
2023-06-05T18:21:16.496Z,4.275
2023-06-05T18:24:16.931Z,3.8375
2023-06-05T18:27:16.906Z,4.012499999999999
2023-06-05T18:31:17.177Z,4.3
2023-06-05T18:34:16.931Z,3.75
2023-06-05T18:37:16.454Z,3.5749999999999997
2023-06-05T18:41:16.334Z,3.775
2023-06-05T18:44:16.567Z,3.9625
2023-06-05T18:47:16.659Z,3.1624999999999996
2023-06-05T18:51:16.400Z,3.3625
2023-06-05T18:54:16.756Z,3.8625
2023-06-05T18:57:17.669Z,3.7
2023-06-05T19:01:16.338Z,3.9375
2023-06-05T19:04:16.617Z,4.387499999999999
2023-06-05T19:07:16.504Z,3.5375
2023-06-05T19:21:18.067Z,5.862500000000001
2023-06-05T19:24:17.379Z,3.9000000000000004
2023-06-05T19:27:18.596Z,4.6000000000000005
2023-06-05T19:31:16.074Z,4.975
2023-06-05T19:34:16.661Z,4.074999999999999
2023-06-05T19:37:16.373Z,3.0875000000000004
2023-06-05T19:41:17.222Z,3.4125
2023-06-05T19:44:16.768Z,3.4125
2023-06-05T19:47:16.358Z,2.8125
2023-06-05T19:51:16.800Z,2.375
2023-06-05T19:54:17.131Z,2
2023-06-05T19:57:16.817Z,2.15
2023-06-05T20:01:16.357Z,1.5
2023-06-05T20:04:16.623Z,2.475
2023-06-05T20:07:16.567Z,2.825
2023-06-05T20:11:16.125Z,3.1374999999999997
2023-06-05T20:14:16.242Z,2.6500000000000004
2023-06-05T20:17:16.829Z,2.7875
2023-06-05T20:21:17.653Z,3.15
2023-06-05T20:24:18.434Z,2.5625
2023-06-05T20:27:23.737Z,2.475
2023-06-05T20:31:17.895Z,2.375
2023-06-05T20:34:18.787Z,2.125
2023-06-05T20:37:19.240Z,2.5374999999999996
2023-06-05T20:41:16.000Z,1.9125
2023-06-05T20:44:18.620Z,1.55
2023-06-05T20:47:21.626Z,1.475
2023-06-05T20:51:20.085Z,1.8
2023-06-05T20:54:16.383Z,1.65
2023-06-05T20:57:18.564Z,2.0625
2023-06-05T21:01:17.244Z,2.225
2023-06-05T21:04:16.840Z,2.1999999999999997
2023-06-05T21:07:16.862Z,2.175
2023-06-05T21:11:15.894Z,2.7125
2023-06-05T21:14:16.172Z,2.45
2023-06-05T21:17:16.309Z,3.0374999999999996
2023-06-05T21:21:15.807Z,2.3875
2023-06-05T21:24:17.380Z,1.7874999999999999
2023-06-05T21:27:16.140Z,2.35
2023-06-05T21:31:16.330Z,1.9375
2023-06-05T21:34:16.680Z,2.5250000000000004
2023-06-05T21:37:17.513Z,2.1875
2023-06-05T21:41:16.535Z,2.5
2023-06-05T21:44:16.987Z,1.9249999999999998
2023-06-05T21:47:18.506Z,2.2124999999999995
2023-06-05T21:51:16.682Z,1.9375
2023-06-05T21:54:17.150Z,2.3375
2023-06-05T21:57:17.308Z,1.9875
2023-06-05T22:01:19.376Z,2.4625000000000004
